Time;durP1;ratioP1;P1;durP2;ratioP2;P2;SDS_P1;SDS_P2;PMS_P1;PMS_P2;Temp;Humidity;BMP_temperature;BMP_pressure;BME280_temperature;BME280_humidity;BME280_pressure;Samples;Min_cycle;Max_cycle;Signal;HPM_P1;HPM_P2
2021/03/24 00:01:21;;;;;;;29.02;16.13;;;1.80;81.00;;;;;;4998164;28;20038;-76
2021/03/24 00:03:46;;;;;;;31.90;16.00;;;1.80;81.00;;;;;;5015846;28;20049;-76
2021/03/24 00:06:14;;;;;;;34.22;16.30;;;1.80;81.00;;;;;;5017183;28;20073;-75
2021/03/24 00:08:40;;;;;;;31.55;16.33;;;1.90;80.90;;;;;;5034505;28;20030;-76
2021/03/24 00:11:07;;;;;;;32.50;15.88;;;2.00;80.70;;;;;;5027519;28;20539;-76
2021/03/24 00:13:33;;;;;;;36.40;17.08;;;2.00;80.40;;;;;;5016007;28;20064;-76
2021/03/24 00:16:00;;;;;;;35.55;16.70;;;2.00;80.20;;;;;;5015646;28;20054;-75
2021/03/24 00:18:26;;;;;;;41.33;17.20;;;2.00;80.10;;;;;;5015466;28;20110;-76
2021/03/24 00:20:53;;;;;;;33.58;16.45;;;2.00;80.10;;;;;;5014225;28;20018;-76
2021/03/24 00:23:18;;;;;;;32.65;17.10;;;2.00;80.10;;;;;;5015276;28;20108;-76
2021/03/24 00:25:44;;;;;;;31.90;15.57;;;2.00;80.80;;;;;;5015227;28;20612;-76
2021/03/24 00:28:11;;;;;;;33.00;16.30;;;2.00;80.10;;;;;;5015346;28;20030;-76
2021/03/24 00:30:42;;;;;;;35.00;16.08;;;1.90;80.30;;;;;;5015226;28;20371;-75
2021/03/24 00:33:14;;;;;;;35.28;17.08;;;2.00;80.30;;;;;;5015136;28;20018;-75
2021/03/24 00:35:40;;;;;;;34.40;17.02;;;1.90;80.30;;;;;;5014897;28;20177;-75
2021/03/24 00:38:06;;;;;;;35.28;16.75;;;1.90;80.20;;;;;;5014982;28;20018;-76
2021/03/24 00:40:35;;;;;;;34.72;17.02;;;2.00;80.20;;;;;;5015003;28;20032;-78
2021/03/24 00:43:01;;;;;;;32.40;16.75;;;2.00;80.10;;;;;;5014907;28;20096;-75
2021/03/24 00:45:27;;;;;;;31.23;16.45;;;1.90;80.10;;;;;;5014932;28;20029;-75
2021/03/24 00:47:53;;;;;;;35.15;16.63;;;2.00;80.00;;;;;;5014879;28;20026;-74
2021/03/24 00:50:21;;;;;;;33.45;16.80;;;2.00;79.90;;;;;;5014969;28;20475;-77
2021/03/24 00:52:47;;;;;;;34.70;15.98;;;1.90;79.80;;;;;;5014674;28;20148;-75
2021/03/24 00:55:14;;;;;;;33.40;17.35;;;1.80;80.00;;;;;;4996991;28;20546;-75
2021/03/24 00:57:39;;;;;;;34.47;16.35;;;1.90;80.20;;;;;;5014494;28;20022;-78
2021/03/24 01:00:09;;;;;;;34.88;16.35;;;1.80;80.10;;;;;;5014568;28;20100;-74
2021/03/24 01:02:35;;;;;;;33.63;16.67;;;1.80;80.30;;;;;;5014630;28;20041;-76
2021/03/24 01:05:08;;;;;;;41.22;18.13;;;1.80;80.20;;;;;;5014757;28;20500;-75
2021/03/24 01:07:33;;;;;;;34.25;18.08;;;1.80;80.20;;;;;;5014238;28;20483;-77
2021/03/24 01:09:59;;;;;;;34.28;18.02;;;1.90;80.30;;;;;;5014382;28;20127;-78
2021/03/24 01:12:25;;;;;;;36.20;18.13;;;1.80;80.10;;;;;;5014408;28;20379;-76
2021/03/24 01:14:50;;;;;;;35.22;17.10;;;1.80;80.30;;;;;;5014334;28;20149;-76
2021/03/24 01:17:16;;;;;;;34.92;17.70;;;1.70;80.50;;;;;;5014290;28;20026;-77
2021/03/24 01:19:43;;;;;;;37.33;16.95;;;1.70;80.60;;;;;;5014134;28;20029;-76
2021/03/24 01:22:09;;;;;;;39.53;18.85;;;1.60;80.60;;;;;;5014274;28;20508;-76
2021/03/24 01:24:34;;;;;;;38.13;17.73;;;1.60;80.80;;;;;;5012758;28;20061;-76
2021/03/24 01:27:00;;;;;;;36.95;18.00;;;1.50;81.00;;;;;;5014109;28;20041;-76
2021/03/24 01:29:25;;;;;;;36.58;17.35;;;1.30;81.30;;;;;;5014086;28;20037;-76
2021/03/24 01:31:51;;;;;;;42.22;17.55;;;1.20;81.80;;;;;;5013679;28;20029;-77
2021/03/24 01:34:17;;;;;;;37.42;17.27;;;1.20;82.10;;;;;;5014097;28;20033;-76
2021/03/24 01:36:42;;;;;;;38.35;17.42;;;1.10;82.70;;;;;;5013747;28;20054;-76
2021/03/24 01:39:08;;;;;;;39.17;18.92;;;1.00;82.70;;;;;;5013892;28;20049;-77
2021/03/24 01:41:35;;;;;;;41.90;17.90;;;1.00;82.80;;;;;;5012598;28;20045;-77
2021/03/24 01:44:01;;;;;;;36.63;17.48;;;1.00;82.90;;;;;;5013902;28;20033;-76
2021/03/24 01:46:44;;;;;;;40.53;18.65;;;1.10;83.00;;;;;;5013967;28;20401;-77
2021/03/24 01:49:30;;;;;;;35.45;17.35;;;1.00;83.00;;;;;;5013776;28;20612;-77
2021/03/24 01:52:03;;;;;;;39.83;19.63;;;0.90;83.40;;;;;;5013730;28;20037;-77
2021/03/24 01:54:37;;;;;;;45.08;18.88;;;0.90;83.70;;;;;;5013607;28;20045;-77
2021/03/24 01:57:16;;;;;;;39.37;18.77;;;1.00;83.80;;;;;;5013624;28;20021;-76
2021/03/24 01:59:42;;;;;;;40.00;19.05;;;1.10;83.50;;;;;;5013603;28;20026;-76
2021/03/24 02:02:14;;;;;;;35.03;17.77;;;1.10;83.20;;;;;;5013510;28;20084;-77
2021/03/24 02:04:39;;;;;;;41.65;19.15;;;1.20;82.90;;;;;;5013046;28;20030;-77
2021/03/24 02:07:14;;;;;;;38.13;18.13;;;1.20;82.70;;;;;;5013363;28;20037;-77
2021/03/24 02:09:52;;;;;;;40.75;18.50;;;1.30;82.50;;;;;;5013325;28;20057;-76
2021/03/24 02:12:36;;;;;;;33.40;17.00;;;1.30;82.10;;;;;;5013371;28;20037;-77
2021/03/24 02:15:14;;;;;;;40.38;18.77;;;1.30;81.70;;;;;;5013485;28;20029;-76
2021/03/24 02:17:43;;;;;;;34.35;17.83;;;1.40;81.40;;;;;;5013258;28;20356;-76
2021/03/24 02:20:22;;;;;;;36.60;17.33;;;1.30;81.50;;;;;;5013271;28;20079;-76
2021/03/24 02:22:56;;;;;;;37.00;17.88;;;1.40;81.40;;;;;;5013143;28;20035;-76
2021/03/24 02:25:30;;;;;;;38.50;19.52;;;1.40;81.00;;;;;;5013216;28;20037;-76
2021/03/24 02:28:01;;;;;;;43.55;20.85;;;1.50;81.00;;;;;;5013101;28;20030;-77
2021/03/24 02:30:31;;;;;;;38.03;18.58;;;1.50;81.00;;;;;;5013034;28;20578;-77
2021/03/24 02:33:10;;;;;;;41.08;18.98;;;1.50;81.20;;;;;;5012948;28;20053;-76
2021/03/24 02:35:45;;;;;;;38.08;18.27;;;1.50;81.10;;;;;;5012611;28;20072;-77
2021/03/24 02:38:11;;;;;;;42.00;19.85;;;1.50;80.60;;;;;;5012870;28;20034;-77
2021/03/24 02:40:39;;;;;;;42.17;20.45;;;1.50;80.70;;;;;;5012839;28;20026;-77
2021/03/24 02:43:07;;;;;;;39.10;18.15;;;1.40;80.60;;;;;;5012616;28;20057;-76
2021/03/24 02:45:37;;;;;;;46.03;20.45;;;1.40;80.80;;;;;;5012083;28;20036;-77
2021/03/24 02:48:07;;;;;;;39.92;19.35;;;1.40;80.70;;;;;;5012610;28;20114;-75
2021/03/24 02:50:35;;;;;;;41.58;19.85;;;1.40;80.80;;;;;;5012551;28;20022;-76
2021/03/24 02:53:01;;;;;;;42.75;20.27;;;1.40;80.80;;;;;;5011270;28;20093;-77
2021/03/24 02:55:28;;;;;;;39.20;19.77;;;1.40;80.90;;;;;;5012525;28;20022;-76
2021/03/24 02:57:54;;;;;;;42.45;20.05;;;1.40;81.30;;;;;;5012301;28;20034;-77
2021/03/24 03:00:22;;;;;;;44.05;21.30;;;1.30;81.10;;;;;;5012509;28;20022;-77
2021/03/24 03:02:54;;;;;;;41.95;19.35;;;1.20;81.20;;;;;;5012344;28;20490;-76
2021/03/24 03:05:30;;;;;;;43.42;20.38;;;1.20;81.30;;;;;;5012500;28;20046;-76
2021/03/24 03:08:01;;;;;;;;;;;1.20;81.20;;;;;;5022630;28;20097;-76
2021/03/24 03:10:34;;;;;;;42.83;20.50;;;1.20;81.40;;;;;;5023207;28;20259;-76
2021/03/24 03:13:12;;;;;;;37.95;19.40;;;1.20;81.60;;;;;;5012542;28;20025;-77
2021/03/24 03:15:46;;;;;;;42.13;19.90;;;1.20;81.70;;;;;;4994690;28;20089;-75
2021/03/24 03:18:25;;;;;;;39.67;20.90;;;1.20;81.70;;;;;;5012645;28;20026;-76
2021/03/24 03:20:58;;;;;;;44.80;20.25;;;1.20;81.60;;;;;;5012424;28;20030;-76
2021/03/24 03:23:27;;;;;;;41.28;18.85;;;1.10;81.70;;;;;;5012483;28;20100;-77
2021/03/24 03:26:14;;;;;;;42.33;19.95;;;1.10;81.90;;;;;;5012390;28;20038;-77
2021/03/24 03:28:44;;;;;;;41.70;19.17;;;1.20;81.80;;;;;;5012116;28;20025;-77
2021/03/24 03:31:17;;;;;;;41.20;19.20;;;1.20;81.80;;;;;;5012309;28;20026;-76
2021/03/24 03:33:49;;;;;;;39.00;19.45;;;1.10;81.90;;;;;;5012280;28;20025;-77
2021/03/24 03:36:15;;;;;;;41.40;20.92;;;1.10;81.90;;;;;;5012435;28;20049;-75
2021/03/24 03:38:43;;;;;;;40.30;19.58;;;1.10;82.00;;;;;;5012417;28;20029;-76
2021/03/24 03:41:10;;;;;;;45.85;21.08;;;1.20;82.10;;;;;;5012486;28;20034;-75
2021/03/24 03:43:39;;;;;;;41.35;20.85;;;1.20;81.90;;;;;;5012646;28;20093;-75
2021/03/24 03:46:05;;;;;;;39.70;20.98;;;1.20;81.80;;;;;;5012418;28;20066;-75
2021/03/24 03:48:31;;;;;;;47.45;22.10;;;1.20;81.80;;;;;;5012519;28;20022;-76
2021/03/24 03:51:02;;;;;;;37.90;19.67;;;1.20;81.60;;;;;;5025628;28;20091;-76
2021/03/24 03:53:43;;;;;;;40.25;20.15;;;1.20;81.50;;;;;;5028552;28;20503;-76
2021/03/24 03:56:24;;;;;;;40.67;20.17;;;1.20;81.50;;;;;;5014908;28;20022;-75
2021/03/24 03:59:07;;;;;;;37.58;18.55;;;1.10;82.50;;;;;;5016059;28;20494;-75
2021/03/24 04:01:39;;;;;;;46.30;20.90;;;1.20;81.60;;;;;;5015793;28;20112;-75
2021/03/24 04:04:44;;;;;;;40.40;20.98;;;1.10;81.70;;;;;;5016017;28;20034;-75
2021/03/24 04:07:25;;;;;;;38.17;19.58;;;1.00;81.60;;;;;;5015684;28;20172;-76
2021/03/24 04:09:54;;;;;;;39.75;19.30;;;1.00;81.80;;;;;;5015655;28;20463;-76
2021/03/24 04:12:21;;;;;;;41.80;19.75;;;1.00;81.80;;;;;;4998269;28;20088;-76
2021/03/24 04:14:48;;;;;;;42.17;19.98;;;1.10;81.80;;;;;;5015754;28;20026;-76
2021/03/24 04:17:24;;;;;;;40.65;20.02;;;1.00;81.50;;;;;;5015496;28;20026;-76
2021/03/24 04:19:53;;;;;;;45.90;20.45;;;0.90;82.00;;;;;;5015562;28;20054;-76
2021/03/24 04:22:23;;;;;;;42.33;20.58;;;0.90;82.20;;;;;;5015523;28;20022;-76
2021/03/24 04:24:52;;;;;;;43.70;21.90;;;0.90;82.40;;;;;;4997695;28;20022;-77
2021/03/24 04:27:20;;;;;;;37.53;19.35;;;0.90;82.40;;;;;;5015349;28;20037;-76
2021/03/24 04:29:50;;;;;;;42.35;20.15;;;0.90;82.30;;;;;;4997402;28;20028;-75
2021/03/24 04:32:16;;;;;;;44.90;20.92;;;0.90;82.20;;;;;;5015328;28;20026;-75
2021/03/24 04:34:42;;;;;;;44.30;20.02;;;0.90;82.20;;;;;;5015005;28;20073;-76
2021/03/24 04:37:25;;;;;;;41.08;21.60;;;0.90;82.20;;;;;;5015126;28;20518;-76
2021/03/24 04:40:01;;;;;;;38.50;20.38;;;0.90;82.10;;;;;;5015055;28;20054;-76
2021/03/24 04:42:41;;;;;;;40.38;19.73;;;0.90;82.20;;;;;;5015143;28;20379;-76
2021/03/24 04:45:31;;;;;;;54.47;21.10;;;0.80;82.30;;;;;;5015506;28;20076;-77
2021/03/24 04:48:00;;;;;;;46.88;22.55;;;0.90;82.50;;;;;;5015425;28;20029;-77
2021/03/24 04:50:32;;;;;;;42.58;21.15;;;0.90;82.60;;;;;;5015418;28;20069;-77
2021/03/24 04:53:01;;;;;;;41.38;20.58;;;0.90;82.70;;;;;;5015509;28;20109;-77
2021/03/24 04:55:28;;;;;;;40.55;20.02;;;0.90;82.60;;;;;;5015299;28;20018;-77
2021/03/24 04:57:56;;;;;;;43.33;20.40;;;0.80;82.50;;;;;;5015218;28;20030;-76
2021/03/24 05:00:35;;;;;;;43.53;20.92;;;0.80;82.50;;;;;;5015108;28;20022;-77
2021/03/24 05:03:07;;;;;;;50.03;21.85;;;0.80;82.60;;;;;;5015013;28;20379;-77
2021/03/24 05:05:40;;;;;;;45.63;21.52;;;0.80;82.60;;;;;;5014743;28;20026;-76
2021/03/24 05:08:20;;;;;;;48.05;21.98;;;0.90;82.70;;;;;;5014425;28;20120;-76
2021/03/24 05:10:47;;;;;;;44.65;21.50;;;0.90;82.60;;;;;;5013589;28;20021;-75
2021/03/24 05:13:38;;;;;;;40.33;20.40;;;0.80;82.60;;;;;;5014897;28;20429;-77
2021/03/24 05:16:13;;;;;;;46.90;22.08;;;0.80;82.80;;;;;;5014850;28;20025;-76
2021/03/24 05:18:40;;;;;;;45.55;20.38;;;0.80;82.80;;;;;;5014942;28;20064;-77
2021/03/24 05:21:23;;;;;;;44.47;21.67;;;0.80;82.80;;;;;;5014805;28;20493;-76
2021/03/24 05:23:55;;;;;;;48.10;21.98;;;0.80;82.70;;;;;;5014815;28;20105;-77
2021/03/24 05:26:32;;;;;;;46.97;21.58;;;0.80;82.90;;;;;;5014653;28;20030;-77
2021/03/24 05:29:01;;;;;;;50.53;22.45;;;0.80;82.80;;;;;;5014589;28;20084;-77
2021/03/24 05:31:34;;;;;;;44.83;21.75;;;0.70;83.00;;;;;;5014671;28;20453;-76
2021/03/24 05:34:14;;;;;;;44.55;21.55;;;0.80;83.10;;;;;;5014749;28;20498;-77
2021/03/24 05:36:45;;;;;;;40.65;20.45;;;0.80;82.90;;;;;;5014288;28;20060;-77
2021/03/24 05:39:20;;;;;;;40.33;20.33;;;0.90;82.70;;;;;;5013238;28;20030;-76
2021/03/24 05:41:53;;;;;;;43.33;20.33;;;0.90;82.50;;;;;;5014357;28;20022;-76
2021/03/24 05:44:49;;;;;;;47.42;21.65;;;0.90;82.40;;;;;;5014416;28;20026;-76
2021/03/24 05:47:32;;;;;;;;;;;1.00;82.40;;;;;;5014682;28;20041;-77
2021/03/24 05:50:28;;;;;;;42.90;21.92;;;1.00;82.30;;;;;;5014268;28;20393;-77
2021/03/24 05:53:27;;;;;;;44.47;21.88;;;1.00;81.80;;;;;;5014235;28;20475;-77
2021/03/24 05:55:52;;;;;;;38.90;18.90;;;1.00;81.80;;;;;;5014127;28;20022;-77
2021/03/24 05:58:40;;;;;;;47.83;21.75;;;1.10;81.80;;;;;;5012816;28;20022;-75
2021/03/24 06:01:11;;;;;;;43.33;20.80;;;1.00;81.70;;;;;;5013973;28;20151;-76
2021/03/24 06:04:04;;;;;;;42.95;20.50;;;1.00;81.70;;;;;;5014012;28;20025;-77
2021/03/24 06:06:50;;;;;;;42.38;20.45;;;1.10;81.70;;;;;;5013966;28;20041;-77
2021/03/24 06:09:42;;;;;;;49.40;20.50;;;1.20;81.20;;;;;;5013854;28;20026;-77
2021/03/24 06:12:43;;;;;;;43.47;21.05;;;1.30;81.00;;;;;;5013320;28;20017;-76
2021/03/24 06:15:18;;;;;;;49.83;21.35;;;1.40;80.80;;;;;;5013709;28;20022;-76
2021/03/24 06:18:00;;;;;;;43.25;20.48;;;1.40;80.60;;;;;;5013591;28;20073;-77
2021/03/24 06:20:52;;;;;;;47.75;20.70;;;1.40;80.60;;;;;;5012941;28;20367;-76
2021/03/24 06:23:37;;;;;;;51.33;22.45;;;1.50;80.60;;;;;;5013442;28;20104;-76
2021/03/24 06:26:34;;;;;;;44.15;20.95;;;1.60;80.20;;;;;;5013217;28;20067;-76
2021/03/24 06:29:08;;;;;;;;;;;1.60;80.10;;;;;;5013371;28;20030;-76
2021/03/24 06:32:11;;;;;;;42.58;20.35;;;1.70;79.90;;;;;;5012980;28;20000;-76
2021/03/24 06:34:54;;;;;;;37.65;19.20;;;1.80;79.40;;;;;;5011702;28;20037;-76
2021/03/24 06:37:47;;;;;;;46.03;20.83;;;1.90;79.10;;;;;;5013292;28;20014;-75
2021/03/24 06:40:31;;;;;;;49.58;21.67;;;2.00;78.90;;;;;;5011906;28;20022;-75
2021/03/24 06:43:29;;;;;;;44.38;20.42;;;2.00;78.70;;;;;;5011974;28;20501;-75
2021/03/24 06:46:21;;;;;;;41.30;19.90;;;2.10;78.50;;;;;;5012982;28;20026;-73
2021/03/24 06:48:59;;;;;;;40.50;19.67;;;2.20;78.10;;;;;;5011807;28;20030;-76
2021/03/24 06:51:52;;;;;;;36.45;18.30;;;2.30;77.90;;;;;;5013040;28;20380;-75
2021/03/24 06:54:51;;;;;;;40.97;18.92;;;2.40;77.60;;;;;;5013209;28;20534;-76
2021/03/24 06:57:23;;;;;;;41.25;19.27;;;2.50;77.20;;;;;;5013040;28;20113;-75
2021/03/24 06:59:51;;;;;;;39.95;19.55;;;2.60;76.90;;;;;;5012943;28;20037;-75
2021/03/24 07:02:22;;;;;;;36.53;18.70;;;2.70;76.70;;;;;;5012780;28;20092;-75
2021/03/24 07:05:14;;;;;;;33.20;17.70;;;2.80;76.40;;;;;;5013325;28;20084;-75
2021/03/24 07:07:45;;;;;;;38.53;19.10;;;2.90;76.10;;;;;;5013170;28;20483;-74
2021/03/24 07:10:31;;;;;;;36.03;18.95;;;3.00;75.70;;;;;;5012980;28;20495;-76
2021/03/24 07:13:38;;;;;;;40.47;18.90;;;3.20;75.50;;;;;;5014257;28;20084;-76
2021/03/24 07:16:58;;;;;;;33.60;17.17;;;3.30;75.00;;;;;;5012918;28;20391;-76
2021/03/24 07:19:53;;;;;;;37.53;17.33;;;3.50;74.40;;;;;;4996432;28;20129;-75
2021/03/24 07:22:37;;;;;;;34.97;16.85;;;3.60;73.70;;;;;;5012922;28;20073;-77
2021/03/24 07:25:13;;;;;;;37.08;18.17;;;3.80;73.50;;;;;;5012995;28;20029;-75
2021/03/24 07:28:07;;;;;;;31.38;16.48;;;3.90;73.00;;;;;;5012697;28;20479;-74
2021/03/24 07:30:39;;;;;;;32.60;17.17;;;4.00;72.60;;;;;;5014333;28;20034;-75
2021/03/24 07:33:15;;;;;;;32.35;17.45;;;4.20;72.30;;;;;;5016770;28;20110;-76
2021/03/24 07:36:04;;;;;;;33.47;16.48;;;4.30;71.90;;;;;;5015201;28;20076;-76
2021/03/24 07:39:03;;;;;;;34.10;17.67;;;4.50;71.50;;;;;;5016628;28;20030;-75
2021/03/24 07:42:12;;;;;;;28.90;16.27;;;4.70;71.10;;;;;;5016887;28;20029;-75
2021/03/24 07:45:00;;;;;;;30.30;15.50;;;4.90;70.90;;;;;;5016577;28;20026;-74
2021/03/24 07:48:02;;;;;;;26.70;14.50;;;5.10;70.40;;;;;;5016480;28;20088;-75
2021/03/24 07:50:40;;;;;;;29.83;15.38;;;5.30;70.00;;;;;;5016520;28;20076;-77
2021/03/24 07:53:12;;;;;;;26.80;15.57;;;5.50;68.90;;;;;;5017391;28;20501;-76
2021/03/24 07:56:00;;;;;;;27.02;15.00;;;5.70;68.60;;;;;;5016405;28;20029;-76
2021/03/24 07:58:44;;;;;;;28.15;15.10;;;5.80;68.40;;;;;;5016820;28;20032;-76
2021/03/24 08:01:34;;;;;;;27.95;14.85;;;6.10;68.60;;;;;;5016239;28;20036;-76
2021/03/24 08:04:27;;;;;;;28.23;15.45;;;6.30;68.40;;;;;;5014800;28;20326;-77
2021/03/24 08:07:07;;;;;;;27.80;15.88;;;6.40;68.20;;;;;;5015994;28;20037;-77
2021/03/24 08:09:50;;;;;;;25.08;14.57;;;6.60;68.90;;;;;;5016010;28;20029;-77
2021/03/24 08:12:33;;;;;;;25.85;14.63;;;6.70;67.00;;;;;;5017470;28;20029;-76
2021/03/24 08:15:12;;;;;;;24.90;14.45;;;6.90;66.90;;;;;;5023190;28;20107;-77
2021/03/24 08:17:54;;;;;;;25.88;13.48;;;7.00;66.90;;;;;;5023580;28;20037;-76
2021/03/24 08:20:35;;;;;;;21.55;12.70;;;7.20;66.90;;;;;;5022911;28;20022;-78
2021/03/24 08:23:06;;;;;;;24.48;13.18;;;7.30;67.00;;;;;;5018332;28;20037;-76
2021/03/24 08:26:07;;;;;;;25.85;13.85;;;7.50;66.50;;;;;;5016198;28;20471;-76
2021/03/24 08:28:54;;;;;;;26.05;14.93;;;7.70;66.60;;;;;;5015974;28;20656;-77
2021/03/24 08:31:44;;;;;;;29.23;14.10;;;7.80;66.50;;;;;;5016820;28;20026;-77
2021/03/24 08:34:36;;;;;;;27.83;15.00;;;7.90;65.20;;;;;;5016987;28;20033;-76
2021/03/24 08:37:19;;;;;;;26.73;15.07;;;8.00;64.00;;;;;;5017404;28;20048;-76
2021/03/24 08:39:59;;;;;;;26.02;14.88;;;8.10;63.50;;;;;;5018413;28;20392;-76
2021/03/24 08:42:46;;;;;;;27.48;15.73;;;8.20;63.00;;;;;;5020407;28;20352;-76
2021/03/24 08:45:27;;;;;;;34.00;15.63;;;8.30;61.90;;;;;;4998988;28;20049;-75
2021/03/24 08:47:58;;;;;;;27.20;13.98;;;8.40;61.10;;;;;;5016529;28;20475;-74
2021/03/24 08:50:37;;;;;;;31.25;15.88;;;8.70;62.50;;;;;;5015415;28;20064;-74
2021/03/24 08:53:10;;;;;;;22.08;13.02;;;9.00;61.50;;;;;;5015133;28;20030;-74
2021/03/24 08:55:47;;;;;;;22.60;12.68;;;9.30;60.60;;;;;;5013787;28;20028;-73
2021/03/24 08:58:20;;;;;;;26.27;14.57;;;9.50;59.10;;;;;;5014823;28;20109;-76
2021/03/24 09:01:03;;;;;;;29.13;15.82;;;9.80;57.10;;;;;;5015319;28;20029;-76
2021/03/24 09:03:37;;;;;;;29.05;15.20;;;10.00;56.20;;;;;;5015520;28;20104;-76
2021/03/24 09:06:48;;;;;;;25.80;14.75;;;10.20;54.50;;;;;;5015257;28;20026;-75
2021/03/24 09:09:52;;;;;;;24.25;14.20;;;10.40;53.30;;;;;;5015318;28;20034;-75
2021/03/24 09:12:28;;;;;;;24.52;12.75;;;10.30;52.60;;;;;;5015230;28;20026;-76
2021/03/24 09:15:02;;;;;;;27.25;11.98;;;10.50;54.40;;;;;;4999747;28;20030;-75
2021/03/24 09:17:55;;;;;;;23.75;12.18;;;10.90;56.20;;;;;;5017903;28;20072;-74
2021/03/24 09:20:42;;;;;;;22.20;11.10;;;11.40;55.60;;;;;;5021985;28;20033;-75
2021/03/24 09:23:32;;;;;;;20.67;10.75;;;11.80;51.80;;;;;;5019242;28;20028;-76
2021/03/24 09:26:20;;;;;;;26.52;12.00;;;12.00;49.20;;;;;;5017279;28;20022;-74
2021/03/24 09:29:20;;;;;;;16.40;9.57;;;12.20;48.70;;;;;;4969747;28;20034;-74
2021/03/24 09:32:00;;;;;;;18.30;10.57;;;12.50;48.20;;;;;;5014602;28;20054;-76
2021/03/24 09:34:44;;;;;;;21.95;10.02;;;12.90;47.10;;;;;;5014227;28;20024;-75
2021/03/24 09:37:13;;;;;;;19.80;10.13;;;12.80;45.20;;;;;;5014445;28;20080;-75
2021/03/24 09:39:56;;;;;;;22.15;11.05;;;12.80;44.70;;;;;;5013975;28;20026;-74
2021/03/24 09:42:35;;;;;;;17.55;10.57;;;12.90;44.40;;;;;;5014689;28;20036;-75
2021/03/24 09:45:12;;;;;;;16.08;9.45;;;13.00;43.30;;;;;;5014499;28;20395;-76
2021/03/24 09:47:46;;;;;;;14.50;8.70;;;13.20;44.00;;;;;;5013736;28;20045;-75
2021/03/24 09:50:18;;;;;;;17.75;9.57;;;13.40;44.40;;;;;;5014159;28;20101;-76
2021/03/24 09:53:08;;;;;;;16.75;9.07;;;13.60;44.00;;;;;;5013772;28;20032;-77
2021/03/24 09:55:40;;;;;;;15.95;8.60;;;13.90;42.90;;;;;;5013866;28;20029;-75
2021/03/24 09:58:24;;;;;;;12.32;7.72;;;14.20;42.00;;;;;;5013965;28;20050;-75
2021/03/24 10:01:08;;;;;;;15.95;8.73;;;14.50;41.40;;;;;;5013915;28;20026;-76
2021/03/24 10:04:08;;;;;;;12.80;7.95;;;14.90;40.80;;;;;;5013971;28;20483;-75
2021/03/24 10:07:01;;;;;;;21.30;12.40;;;15.10;39.50;;;;;;5012524;28;20597;-76
2021/03/24 10:09:36;;;;;;;19.70;12.05;;;14.80;38.10;;;;;;5013701;28;20045;-75
2021/03/24 10:12:08;;;;;;;21.17;13.73;;;14.40;38.20;;;;;;5013765;28;20474;-75
2021/03/24 10:14:55;;;;;;;21.92;13.35;;;14.20;39.00;;;;;;5000555;28;20030;-76
2021/03/24 10:17:26;;;;;;;26.88;13.85;;;13.80;38.60;;;;;;4992940;28;20444;-77
2021/03/24 10:20:14;;;;;;;25.70;13.05;;;13.60;39.80;;;;;;4993813;28;20034;-75
2021/03/24 10:22:48;;;;;;;21.17;13.10;;;13.40;40.90;;;;;;4993467;28;20431;-75
2021/03/24 10:25:32;;;;;;;24.55;12.57;;;13.70;40.80;;;;;;4993629;28;20041;-75
2021/03/24 10:28:04;;;;;;;18.65;11.13;;;13.60;39.90;;;;;;4993465;28;20534;-74
2021/03/24 10:30:43;;;;;;;26.38;15.32;;;13.70;40.30;;;;;;4993653;28;20121;-76
2021/03/24 10:33:20;;;;;;;28.05;15.05;;;13.80;39.90;;;;;;4993651;28;20031;-76
2021/03/24 10:36:02;;;;;;;25.92;15.02;;;13.60;40.00;;;;;;4993452;28;20499;-77
2021/03/24 10:38:52;;;;;;;24.95;14.55;;;13.70;40.00;;;;;;4992330;28;20111;-76
2021/03/24 10:41:25;;;;;;;27.33;15.32;;;13.80;40.00;;;;;;4993977;28;20488;-76
2021/03/24 10:43:52;;;;;;;24.52;14.73;;;13.90;40.00;;;;;;4993300;28;20034;-76
2021/03/24 10:46:25;;;;;;;23.13;13.48;;;14.00;39.50;;;;;;4993425;28;20553;-76
2021/03/24 10:49:01;;;;;;;18.73;11.90;;;14.30;39.70;;;;;;4976130;28;20039;-76
2021/03/24 10:51:49;;;;;;;21.85;12.32;;;14.60;39.60;;;;;;4975985;28;20150;-75
2021/03/24 10:54:28;;;;;;;22.95;12.88;;;15.00;39.30;;;;;;4976060;28;20057;-75
2021/03/24 10:57:15;;;;;;;20.33;12.32;;;15.20;38.00;;;;;;4975976;28;20109;-76
2021/03/24 10:59:51;;;;;;;17.90;10.95;;;15.20;37.50;;;;;;4993406;28;20498;-75
2021/03/24 11:02:33;;;;;;;14.68;9.20;;;15.00;37.10;;;;;;4993175;28;20432;-76
2021/03/24 11:05:02;;;;;;;20.33;10.98;;;15.30;37.20;;;;;;4977412;28;20136;-74
2021/03/24 11:07:45;;;;;;;15.80;9.60;;;15.40;36.40;;;;;;4981648;28;20041;-75
2021/03/24 11:10:10;;;;;;;14.98;9.48;;;15.30;36.10;;;;;;4998228;28;20360;-76
2021/03/24 11:13:02;;;;;;;13.77;8.55;;;15.30;35.70;;;;;;4998220;28;20034;-76
2021/03/24 11:15:37;;;;;;;14.95;9.52;;;15.50;35.60;;;;;;4981134;28;20427;-75
2021/03/24 11:18:09;;;;;;;17.40;8.93;;;15.80;35.30;;;;;;4999599;28;20379;-76
2021/03/24 11:21:01;;;;;;;15.40;9.60;;;15.90;35.20;;;;;;4981915;28;20030;-76
2021/03/24 11:23:50;;;;;;;17.10;9.35;;;16.10;35.90;;;;;;4999408;28;20050;-75
2021/03/24 11:26:44;;;;;;;11.65;7.55;;;16.20;35.20;;;;;;4982274;28;20360;-77
2021/03/24 11:29:13;;;;;;;12.23;7.78;;;16.30;35.10;;;;;;4982014;28;20026;-77
2021/03/24 11:32:00;;;;;;;12.98;8.07;;;16.50;34.20;;;;;;4965788;28;20049;-77
2021/03/24 11:35:04;;;;;;;13.95;7.95;;;16.60;33.50;;;;;;4998116;28;20022;-76
2021/03/24 11:38:07;;;;;;;12.38;8.27;;;16.80;33.10;;;;;;4959266;28;20071;-75
2021/03/24 11:40:39;;;;;;;11.40;6.95;;;16.90;33.60;;;;;;4998398;28;20231;-75
2021/03/24 11:43:09;;;;;;;14.52;7.78;;;16.80;32.70;;;;;;4999412;28;20141;-79
2021/03/24 11:45:37;;;;;;;11.27;6.60;;;17.10;32.80;;;;;;4999263;28;20050;-76
2021/03/24 11:48:38;;;;;;;15.27;8.90;;;17.40;32.40;;;;;;4981950;28;20077;-76
2021/03/24 11:51:21;;;;;;;12.80;7.47;;;17.10;32.20;;;;;;4999103;28;20026;-76
2021/03/24 11:54:16;;;;;;;11.73;7.45;;;16.90;32.40;;;;;;4998995;28;20567;-76
2021/03/24 11:56:50;;;;;;;14.10;7.93;;;17.00;32.00;;;;;;4999319;28;20030;-75
2021/03/24 11:59:39;;;;;;;11.90;7.30;;;17.10;32.00;;;;;;4999544;28;20074;-76
2021/03/24 12:02:46;;;;;;;11.48;6.70;;;17.10;31.70;;;;;;4981723;28;20029;-75
2021/03/24 12:05:29;;;;;;;10.63;6.80;;;17.00;31.50;;;;;;4935210;28;20040;-76
2021/03/24 12:08:18;;;;;;;10.18;6.25;;;17.30;31.80;;;;;;4981281;28;20068;-76
2021/03/24 12:11:17;;;;;;;11.00;5.97;;;17.60;31.60;;;;;;4998814;28;20026;-78
2021/03/24 12:13:43;;;;;;;10.90;6.60;;;17.90;31.20;;;;;;4965350;28;20557;-77
2021/03/24 12:16:14;;;;;;;11.32;6.55;;;17.70;30.10;;;;;;4980577;28;20038;-78
2021/03/24 12:18:44;;;;;;;9.93;5.90;;;18.10;29.80;;;;;;4995875;28;20141;-77
2021/03/24 12:21:34;;;;;;;9.02;6.32;;;18.10;30.30;;;;;;4994655;28;20395;-77
2021/03/24 12:24:29;;;;;;;9.48;6.07;;;18.00;30.30;;;;;;4968760;28;20066;-77
2021/03/24 12:27:09;;;;;;;12.88;6.35;;;17.40;30.10;;;;;;4985265;28;20142;-77
2021/03/24 12:29:35;;;;;;;10.48;6.28;;;17.30;30.50;;;;;;4994664;28;20057;-76
2021/03/24 12:32:06;;;;;;;9.50;6.63;;;17.70;30.50;;;;;;4996090;28;20030;-77
2021/03/24 12:34:41;;;;;;;12.30;6.30;;;17.90;30.00;;;;;;4995961;28;20034;-78
2021/03/24 12:37:19;;;;;;;;;;;18.40;29.40;;;;;;4978750;28;20030;-75
2021/03/24 12:39:45;;;;;;;6.97;4.85;;;18.50;28.70;;;;;;4978254;28;19917;-79
2021/03/24 12:42:33;;;;;;;7.43;4.90;;;19.00;28.10;;;;;;4977926;28;20043;-77
2021/03/24 12:45:00;;;;;;;8.90;5.15;;;19.40;27.80;;;;;;4996000;28;20085;-76
2021/03/24 12:47:31;;;;;;;6.40;5.40;;;19.60;26.50;;;;;;4995739;28;20451;-77
2021/03/24 12:50:12;;;;;;;8.02;5.20;;;19.00;25.70;;;;;;4994395;28;20019;-76
2021/03/24 12:52:59;;;;;;;9.35;4.90;;;19.00;25.40;;;;;;4994302;28;20030;-79
2021/03/24 12:55:25;;;;;;;8.40;4.90;;;19.00;25.30;;;;;;4975329;28;20030;-77
2021/03/24 12:58:21;;;;;;;7.40;4.82;;;19.20;25.40;;;;;;4977645;28;20042;-78
2021/03/24 13:01:05;;;;;;;11.20;5.03;;;19.50;25.50;;;;;;4993825;28;20022;-75
2021/03/24 13:03:52;;;;;;;7.82;4.63;;;18.90;25.20;;;;;;4995327;28;20062;-76
2021/03/24 13:06:42;;;;;;;6.55;4.35;;;18.90;25.70;;;;;;4994002;28;20073;-77
2021/03/24 13:10:01;;;;;;;9.02;4.85;;;18.70;25.80;;;;;;4995090;28;20022;-77
2021/03/24 13:12:46;;;;;;;8.88;4.63;;;18.70;26.10;;;;;;4900216;29;20111;-76
2021/03/24 13:15:35;;;;;;;6.07;4.18;;;18.70;25.90;;;;;;4900029;29;20068;-75
2021/03/24 13:18:13;;;;;;;8.18;4.75;;;19.00;25.70;;;;;;4966291;28;20050;-75
2021/03/24 13:21:03;;;;;;;7.35;4.35;;;19.30;25.60;;;;;;4977161;28;20033;-76
2021/03/24 13:23:46;;;;;;;5.63;3.47;;;19.80;25.10;;;;;;4993703;28;20029;-75
2021/03/24 13:26:23;;;;;;;7.63;4.93;;;20.20;24.80;;;;;;4993369;28;20387;-75
2021/03/24 13:28:55;;;;;;;7.07;3.70;;;20.50;24.30;;;;;;4994339;28;20026;-80
2021/03/24 13:31:31;;;;;;;5.47;3.38;;;20.60;23.80;;;;;;4994841;28;20029;-78
2021/03/24 13:34:19;;;;;;;6.35;3.72;;;20.70;23.50;;;;;;4994720;28;20030;-80